createdAt,value
2022-12-25T00:01:42.740Z,101182.19
2022-12-25T00:04:15.355Z,101177.16
2022-12-25T00:06:48.071Z,101166.63
2022-12-25T00:09:20.721Z,101153.31
2022-12-25T00:11:53.431Z,101166.63
2022-12-25T00:14:26.050Z,101146.81
2022-12-25T00:16:58.756Z,101170.69
2022-12-25T00:19:40.598Z,101172.22
2022-12-25T00:22:13.158Z,101170.88
2022-12-25T00:24:48.597Z,101171.03
2022-12-25T00:27:21.188Z,101165.44
2022-12-25T00:29:53.712Z,101167.00
2022-12-25T00:32:26.480Z,101162.06
2022-12-25T00:35:00.210Z,101165.13
2022-12-25T00:37:32.728Z,101158.00
2022-12-25T00:40:06.329Z,101164.06
2022-12-25T00:42:38.940Z,101172.75
2022-12-25T00:45:11.512Z,101159.28
2022-12-25T00:47:44.049Z,101158.69
2022-12-25T00:50:18.082Z,101165.03
2022-12-25T00:52:50.742Z,101159.63
2022-12-25T00:55:23.616Z,101166.78
2022-12-25T00:57:56.279Z,101159.31
2022-12-25T01:00:28.785Z,101148.91
2022-12-25T01:03:01.396Z,101137.75
2022-12-25T01:05:34.197Z,101150.03
2022-12-25T01:08:07.020Z,101138.38
2022-12-25T01:10:39.529Z,101141.94
2022-12-25T01:13:12.116Z,101140.09
2022-12-25T01:15:44.851Z,101134.50
2022-12-25T01:18:18.265Z,101135.47
2022-12-25T01:20:51.404Z,101137.00
2022-12-25T01:23:24.073Z,101142.59
2022-12-25T01:25:56.962Z,101136.69
2022-12-25T01:28:29.555Z,101144.78
2022-12-25T01:31:02.962Z,101153.19
2022-12-25T01:33:35.664Z,101145.47
2022-12-25T01:36:31.938Z,101155.69
2022-12-25T01:39:05.315Z,101160.69
2022-12-25T01:41:37.940Z,101167.84
2022-12-25T01:44:16.409Z,101159.13
2022-12-25T01:46:48.922Z,101161.03
2022-12-25T01:49:25.724Z,101164.28
2022-12-25T01:52:05.290Z,101171.91
2022-12-25T01:54:58.378Z,101175.94
2022-12-25T01:57:36.624Z,101190.72
2022-12-25T02:00:12.064Z,101191.19
2022-12-25T02:02:45.802Z,101187.63
2022-12-25T02:05:32.186Z,101190.06
2022-12-25T02:08:10.951Z,101188.41
2022-12-25T02:10:44.896Z,101190.91
2022-12-25T02:13:20.162Z,101187.78
2022-12-25T02:16:06.204Z,101194.34
2022-12-25T02:18:56.911Z,101195.56
2022-12-25T02:22:02.067Z,101193.06
2022-12-25T02:24:40.482Z,101196.34
2022-12-25T02:27:31.818Z,101202.28
2022-12-25T02:30:10.389Z,101203.97
2022-12-25T02:33:17.209Z,101205.19
2022-12-25T02:35:55.006Z,101199.31
2022-12-25T02:38:38.321Z,101194.97
2022-12-25T02:41:17.320Z,101191.38
2022-12-25T02:44:08.716Z,101190.31
2022-12-25T02:47:01.796Z,101184.41
2022-12-25T02:49:55.617Z,101173.22
2022-12-25T02:52:50.261Z,101178.06
2022-12-25T02:55:50.067Z,101181.63
2022-12-25T02:58:44.845Z,101169.66
2022-12-25T03:01:39.803Z,101156.19
2022-12-25T03:04:39.098Z,101156.75
2022-12-25T03:07:21.446Z,101151.06
2022-12-25T03:10:21.644Z,101153.84
2022-12-25T03:13:03.839Z,101146.38
2022-12-25T03:15:55.227Z,101130.09
2022-12-25T03:18:31.353Z,101101.06
2022-12-25T03:21:22.908Z,101102.78
2022-12-25T03:24:19.845Z,101117.06
2022-12-25T03:26:56.089Z,101107.44
2022-12-25T03:29:52.868Z,101096.25
2022-12-25T03:33:36.817Z,101096.50
2022-12-25T03:36:15.612Z,101096.06
2022-12-25T03:39:38.534Z,101094.69
2022-12-25T03:42:32.383Z,101097.78
2022-12-25T03:45:40.647Z,101100.00
2022-12-25T03:48:34.840Z,101098.75
2022-12-25T03:51:32.321Z,101093.16
2022-12-25T03:54:29.360Z,101098.16
2022-12-25T03:57:20.831Z,101094.41
2022-12-25T04:00:11.936Z,101079.81
2022-12-25T04:03:03.224Z,101071.44
2022-12-25T04:05:54.971Z,101069.13
2022-12-25T04:08:46.439Z,101068.63
2022-12-25T04:11:38.269Z,101063.53
2022-12-25T04:14:29.865Z,101068.03
2022-12-25T04:17:21.270Z,101079.22
2022-12-25T04:20:12.451Z,101084.03
2022-12-25T04:23:03.854Z,101076.13
2022-12-25T04:25:55.182Z,101077.69
2022-12-25T04:28:46.773Z,101071.94
2022-12-25T04:31:39.580Z,101075.84
2022-12-25T04:34:30.940Z,101073.81
2022-12-25T04:37:03.496Z,101075.53
2022-12-25T04:39:36.166Z,101077.06
2022-12-25T04:42:08.704Z,101080.03
2022-12-25T04:44:41.209Z,101083.63
2022-12-25T04:47:13.718Z,101072.59
2022-12-25T04:49:46.227Z,101077.25
2022-12-25T04:52:18.893Z,101065.28
2022-12-25T04:54:51.698Z,101069.34
2022-12-25T04:57:24.379Z,101065.28
2022-12-25T04:59:57.033Z,101068.44
2022-12-25T05:02:30.128Z,101067.03
2022-12-25T05:05:03.025Z,101066.25
2022-12-25T05:07:35.593Z,101061.59
2022-12-25T05:10:08.728Z,101048.28
2022-12-25T05:12:41.379Z,101052.03
2022-12-25T05:15:13.967Z,101061.28
2022-12-25T05:17:46.645Z,101045.03
2022-12-25T05:20:19.231Z,101058.22
2022-12-25T05:22:51.833Z,101041.91
2022-12-25T05:25:24.604Z,101053.56
2022-12-25T05:27:57.158Z,101045.19
2022-12-25T05:30:29.828Z,101042.69
2022-12-25T05:33:03.399Z,101026.59
2022-12-25T05:35:39.490Z,101017.25
2022-12-25T05:38:12.091Z,101008.56
2022-12-25T05:40:44.619Z,101014.91
2022-12-25T05:43:17.292Z,100998.03
2022-12-25T05:45:50.886Z,101021.28
2022-12-25T05:48:23.598Z,101022.06
2022-12-25T05:50:56.255Z,101026.09
2022-12-25T05:53:28.956Z,101015.72
2022-12-25T05:56:07.408Z,101019.72
2022-12-25T05:58:41.120Z,101009.97
2022-12-25T06:01:18.688Z,101019.72
2022-12-25T06:03:51.746Z,101021.28
2022-12-25T06:06:24.551Z,101011.81
2022-12-25T06:08:57.110Z,101008.25
2022-12-25T06:11:29.665Z,101006.72
2022-12-25T06:14:02.239Z,101002.66
2022-12-25T06:16:38.107Z,100987.63
2022-12-25T06:19:11.225Z,100982.72
2022-12-25T06:21:43.828Z,100977.72
2022-12-25T06:24:21.296Z,100969.19
2022-12-25T06:26:54.320Z,100985.13
2022-12-25T06:29:26.913Z,100978.47
2022-12-25T06:31:59.705Z,100974.63
2022-12-25T06:34:32.332Z,100986.56
2022-12-25T06:37:05.007Z,100980.50
2022-12-25T06:39:37.693Z,100980.03
2022-12-25T06:42:10.613Z,100975.03
2022-12-25T06:44:43.164Z,100956.38
2022-12-25T06:47:15.904Z,100950.91
2022-12-25T06:49:48.600Z,100941.88
2022-12-25T06:52:21.166Z,100937.34
2022-12-25T06:54:53.723Z,100929.09
2022-12-25T06:57:26.237Z,100905.94
2022-12-25T06:59:58.894Z,100908.97
2022-12-25T07:02:33.532Z,100916.97
2022-12-25T07:05:06.756Z,100915.06
2022-12-25T07:07:39.415Z,100917.81
2022-12-25T07:10:12.067Z,100920.69
2022-12-25T07:12:44.655Z,100920.81
2022-12-25T07:15:17.406Z,100917.63
2022-12-25T07:17:49.935Z,100921.59
2022-12-25T07:20:22.549Z,100920.81
2022-12-25T07:22:55.168Z,100922.75
2022-12-25T07:25:32.098Z,100927.66
2022-12-25T07:28:08.120Z,100931.34
2022-12-25T07:30:40.659Z,100946.19
2022-12-25T07:33:13.189Z,100953.91
2022-12-25T07:35:46.000Z,100950.41
2022-12-25T07:38:18.899Z,100949.47
2022-12-25T07:40:51.739Z,100947.72
2022-12-25T07:43:24.288Z,100940.38
2022-12-25T07:45:59.202Z,100938.44
2022-12-25T07:48:32.148Z,100929.34
2022-12-25T07:51:12.842Z,100933.06
2022-12-25T07:53:45.671Z,100931.31
2022-12-25T07:56:20.456Z,100944.81
2022-12-25T07:58:53.136Z,100937.00
2022-12-25T08:01:27.787Z,100951.28
2022-12-25T08:04:02.535Z,100967.91
2022-12-25T08:06:36.054Z,100988.06
2022-12-25T08:09:12.901Z,100982.25
2022-12-25T08:11:47.073Z,100977.13
2022-12-25T08:14:19.614Z,100986.81
2022-12-25T08:16:52.454Z,100982.06
2022-12-25T08:19:25.239Z,100999.94
2022-12-25T08:21:57.886Z,101006.78
2022-12-25T08:24:30.680Z,101016.25
2022-12-25T08:27:03.564Z,101018.56
2022-12-25T08:29:36.248Z,100995.56
2022-12-25T08:32:08.913Z,100990.53
2022-12-25T08:34:41.466Z,100981.66
2022-12-25T08:37:13.992Z,100969.59
2022-12-25T08:39:46.645Z,101001.97
2022-12-25T08:42:20.390Z,100988.44
2022-12-25T08:44:54.130Z,101007.75
2022-12-25T08:47:26.778Z,101030.94
2022-12-25T08:49:59.379Z,101016.88
2022-12-25T08:52:32.098Z,101016.88
2022-12-25T08:55:05.554Z,101023.69
2022-12-25T08:57:38.230Z,100995.41
2022-12-25T09:00:11.684Z,101005.25
2022-12-25T09:02:44.549Z,100997.91
2022-12-25T09:05:17.362Z,100984.81
2022-12-25T09:07:50.031Z,100977.75
2022-12-25T09:10:22.960Z,100967.81
2022-12-25T09:12:56.960Z,100954.00
2022-12-25T09:15:29.795Z,100956.78
2022-12-25T09:18:02.520Z,100966.47
2022-12-25T09:20:35.396Z,100985.78
2022-12-25T09:23:13.510Z,100994.66
2022-12-25T09:25:46.500Z,100981.44
2022-12-25T09:28:19.152Z,100976.66
2022-12-25T09:30:53.283Z,100988.16
2022-12-25T09:33:25.936Z,100995.88
2022-12-25T09:36:06.716Z,100977.25
2022-12-25T09:38:39.878Z,100964.69
2022-12-25T09:41:35.796Z,100959.31
2022-12-25T09:44:22.814Z,100954.28
2022-12-25T09:47:28.444Z,100938.84
2022-12-25T09:50:33.142Z,100959.41
2022-12-25T09:53:32.650Z,100952.25
2022-12-25T09:56:19.294Z,100952.16
2022-12-25T09:58:54.040Z,100950.06
2022-12-25T10:02:13.604Z,100929.75
2022-12-25T10:05:32.487Z,100946.38
2022-12-25T10:08:35.115Z,100933.44
2022-12-25T10:11:50.814Z,100933.63
2022-12-25T10:15:19.443Z,100937.22
2022-12-25T10:18:28.359Z,100921.28
2022-12-25T10:21:07.970Z,100924.00
2022-12-25T10:24:05.507Z,100918.09
2022-12-25T10:26:38.420Z,100928.03
2022-12-25T10:29:22.477Z,100907.88
2022-12-25T10:31:56.733Z,100903.53
2022-12-25T10:34:29.465Z,100907.03
2022-12-25T10:37:02.480Z,100904.22
2022-12-25T10:39:36.079Z,100915.41
2022-12-25T10:42:31.042Z,100910.41
2022-12-25T10:45:09.441Z,100924.00
2022-12-25T10:47:42.846Z,100917.81
2022-12-25T10:50:25.314Z,100899.50
2022-12-25T10:53:05.178Z,100887.25
2022-12-25T10:55:37.835Z,100882.41
2022-12-25T10:58:20.664Z,100871.03
2022-12-25T11:00:58.875Z,100851.34
2022-12-25T11:03:39.891Z,100827.34
2022-12-25T11:06:31.178Z,100835.63
2022-12-25T11:09:03.946Z,100844.72
2022-12-25T11:11:38.206Z,100835.44
2022-12-25T11:14:20.705Z,100856.38
2022-12-25T11:16:54.991Z,100864.00
2022-12-25T11:19:31.577Z,100854.06
2022-12-25T11:22:05.137Z,100836.78
2022-12-25T11:24:37.734Z,100829.25
2022-12-25T11:27:29.730Z,100820.94
2022-12-25T11:30:04.494Z,100822.19
2022-12-25T11:32:55.561Z,100805.00
2022-12-25T11:35:37.213Z,100817.25
2022-12-25T11:38:09.730Z,100804.53
2022-12-25T11:40:58.703Z,100811.25
2022-12-25T11:43:42.166Z,100800.84
2022-12-25T11:46:35.682Z,100803.50
2022-12-25T11:49:18.730Z,100805.13
2022-12-25T11:51:57.249Z,100796.94
2022-12-25T11:55:04.953Z,100801.13
2022-12-25T11:57:41.241Z,100795.38
2022-12-25T12:00:17.053Z,100795.16
2022-12-25T12:03:23.424Z,100786.34
2022-12-25T12:06:03.326Z,100787.09
2022-12-25T12:08:36.953Z,100780.78
2022-12-25T12:11:28.918Z,100789.06
2022-12-25T12:14:31.194Z,100792.91
2022-12-25T12:17:04.097Z,100779.88
2022-12-25T12:19:36.710Z,100773.31
2022-12-25T12:22:36.135Z,100778.59
2022-12-25T12:25:16.069Z,100763.22
2022-12-25T12:28:05.345Z,100735.88
2022-12-25T12:30:38.489Z,100746.72
2022-12-25T12:33:20.712Z,100741.06
2022-12-25T12:35:54.092Z,100755.41
2022-12-25T12:38:27.410Z,100752.16
2022-12-25T12:41:04.568Z,100734.59
2022-12-25T12:44:04.985Z,100737.00
2022-12-25T12:46:40.110Z,100734.88
2022-12-25T12:49:29.066Z,100735.97
2022-12-25T12:52:30.049Z,100738.31
2022-12-25T12:55:13.090Z,100736.66
2022-12-25T12:57:45.897Z,100735.16
2022-12-25T13:00:21.163Z,100738.94
2022-12-25T13:03:50.781Z,100743.66
2022-12-25T13:06:58.944Z,100734.94
2022-12-25T13:10:13.631Z,100725.25
2022-12-25T13:12:50.140Z,100710.19
2022-12-25T13:15:29.981Z,100700.97
2022-12-25T13:18:12.494Z,100685.56
2022-12-25T13:21:00.826Z,100678.53
2022-12-25T13:23:36.831Z,100677.72
2022-12-25T13:26:17.217Z,100645.00
2022-12-25T13:28:49.875Z,100671.84
2022-12-25T13:31:28.759Z,100685.28
2022-12-25T13:34:06.603Z,100688.09
2022-12-25T13:36:40.296Z,100676.63
2022-12-25T13:39:17.538Z,100689.66
2022-12-25T13:42:11.093Z,100683.50
2022-12-25T13:44:58.628Z,100670.31
2022-12-25T13:47:43.106Z,100672.00
2022-12-25T13:50:29.027Z,100678.19
2022-12-25T13:53:16.989Z,100687.41
2022-12-25T13:55:55.889Z,100664.59
2022-12-25T13:58:33.357Z,100659.69
2022-12-25T14:01:06.988Z,100659.97
2022-12-25T14:03:43.992Z,100661.53
2022-12-25T14:06:24.457Z,100664.75
2022-12-25T14:08:59.747Z,100653.31
2022-12-25T14:11:32.770Z,100645.28
2022-12-25T14:14:25.896Z,100661.19
2022-12-25T14:16:59.969Z,100658.56
2022-12-25T14:19:34.354Z,100648.44
2022-12-25T14:22:19.003Z,100643.78
2022-12-25T14:24:51.963Z,100649.13
2022-12-25T14:27:30.455Z,100646.78
2022-12-25T14:30:03.501Z,100628.69
2022-12-25T14:32:44.655Z,100631.75
2022-12-25T14:35:23.262Z,100623.06
2022-12-25T14:38:00.226Z,100622.81
2022-12-25T14:40:35.929Z,100616.91
2022-12-25T14:43:26.467Z,100621.31
2022-12-25T14:46:06.554Z,100612.72
2022-12-25T14:48:39.405Z,100626.00
2022-12-25T14:51:18.523Z,100619.66
2022-12-25T14:53:55.908Z,100626.00
2022-12-25T14:56:38.658Z,100617.34
2022-12-25T14:59:20.494Z,100614.53
2022-12-25T15:02:01.117Z,100619.50
2022-12-25T15:04:34.442Z,100621.09
2022-12-25T15:07:30.725Z,100616.72
2022-12-25T15:13:00.050Z,100617.06
2022-12-25T15:15:34.045Z,100629.84
2022-12-25T15:18:06.710Z,100639.13
2022-12-25T15:20:39.432Z,100639.88
2022-12-25T15:23:20.326Z,100630.47
2022-12-25T15:25:53.322Z,100626.22
2022-12-25T15:28:26.034Z,100623.19
2022-12-25T15:30:58.762Z,100631.09
2022-12-25T15:33:31.623Z,100623.72
2022-12-25T15:36:04.438Z,100627.09
2022-12-25T15:38:38.875Z,100622.78
2022-12-25T15:41:37.690Z,100619.22
2022-12-25T15:44:12.452Z,100612.13
2022-12-25T15:46:46.109Z,100616.25
2022-12-25T15:49:19.034Z,100612.97
2022-12-25T15:51:51.646Z,100613.72
2022-12-25T15:54:24.443Z,100615.03
2022-12-25T15:57:02.855Z,100611.97
2022-12-25T15:59:35.425Z,100618.88
2022-12-25T16:02:20.991Z,100611.78
2022-12-25T16:04:55.214Z,100617.63
2022-12-25T16:07:28.983Z,100614.78
2022-12-25T16:10:01.657Z,100609.97
2022-12-25T16:12:34.377Z,100609.97
2022-12-25T16:15:07.896Z,100605.88
2022-12-25T16:17:43.777Z,100613.53
2022-12-25T16:20:18.488Z,100607.66
2022-12-25T16:22:51.091Z,100588.25
2022-12-25T16:25:24.056Z,100598.22
2022-12-25T16:27:56.856Z,100600.75
2022-12-25T16:30:43.987Z,100594.19
2022-12-25T16:33:17.052Z,100595.91
2022-12-25T16:35:51.342Z,100585.16
2022-12-25T16:38:24.139Z,100596.91
2022-12-25T16:41:00.886Z,100603.53
2022-12-25T16:43:33.479Z,100599.44
2022-12-25T16:46:19.594Z,100600.75
2022-12-25T16:48:52.235Z,100604.50
2022-12-25T16:51:24.783Z,100608.56
2022-12-25T16:53:57.524Z,100595.28
2022-12-25T16:56:31.421Z,100605.50
2022-12-25T16:59:04.506Z,100604.75
2022-12-25T17:01:47.562Z,100596.28
2022-12-25T17:04:20.297Z,100598.59
2022-12-25T17:06:52.855Z,100595.50
2022-12-25T17:09:25.475Z,100591.41
2022-12-25T17:11:59.196Z,100593.94
2022-12-25T17:14:38.436Z,100605.94
2022-12-25T17:17:16.315Z,100602.59
2022-12-25T17:19:50.116Z,100607.94
2022-12-25T17:22:22.678Z,100606.88
2022-12-25T17:24:55.408Z,100611.72
2022-12-25T17:27:29.189Z,100614.50
2022-12-25T17:30:01.804Z,100598.69
2022-12-25T17:32:34.757Z,100590.03
2022-12-25T17:35:07.728Z,100595.34
2022-12-25T17:37:42.355Z,100579.78
2022-12-25T17:40:33.983Z,100585.53
2022-12-25T17:43:07.325Z,100583.88
2022-12-25T17:49:01.183Z,100573.78
2022-12-25T17:51:36.327Z,100585.84
2022-12-25T18:00:29.186Z,100587.94
2022-12-25T18:06:25.740Z,100588.91
2022-12-25T18:08:58.951Z,100573.41
2022-12-25T18:11:36.643Z,100565.94
2022-12-25T18:14:15.356Z,100581.44
2022-12-25T18:16:48.126Z,100576.59
2022-12-25T18:19:20.850Z,100582.19
2022-12-25T18:21:53.572Z,100581.38
2022-12-25T18:24:26.427Z,100573.63
2022-12-25T18:26:59.169Z,100581.25
2022-12-25T18:29:31.900Z,100588.94
2022-12-25T18:32:04.872Z,100605.78
2022-12-25T18:34:37.685Z,100606.78
2022-12-25T18:37:10.402Z,100602.72
2022-12-25T18:39:42.987Z,100604.19
2022-12-25T18:42:33.974Z,100612.31
2022-12-25T18:45:15.332Z,100608.53
2022-12-25T18:47:48.244Z,100608.00
2022-12-25T18:50:20.955Z,100602.38
2022-12-25T18:52:53.643Z,100604.16
2022-12-25T18:55:26.598Z,100611.00
2022-12-25T18:57:59.556Z,100600.72
2022-12-25T19:00:32.165Z,100607.44
2022-12-25T19:03:05.974Z,100614.78
2022-12-25T19:05:40.551Z,100593.31
2022-12-25T19:08:14.196Z,100607.88
2022-12-25T19:10:46.726Z,100609.38
2022-12-25T19:13:19.990Z,100603.03
2022-12-25T19:15:52.655Z,100594.91
2022-12-25T19:18:39.110Z,100597.75
2022-12-25T19:21:12.251Z,100571.66
2022-12-25T19:23:45.272Z,100560.84
2022-12-25T19:26:18.065Z,100563.25
2022-12-25T19:28:50.600Z,100584.16
2022-12-25T19:31:25.450Z,100586.56
2022-12-25T19:33:58.056Z,100592.28
2022-12-25T19:36:31.277Z,100594.03
2022-12-25T19:39:06.002Z,100600.66
2022-12-25T19:41:38.699Z,100599.63
2022-12-25T19:44:11.520Z,100608.03
2022-12-25T19:46:44.165Z,100595.00
2022-12-25T19:49:16.887Z,100598.06
2022-12-25T19:51:49.581Z,100607.19
2022-12-25T19:54:22.266Z,100604.66
2022-12-25T19:56:55.546Z,100618.66
2022-12-25T19:59:28.287Z,100620.94
2022-12-25T20:02:00.932Z,100622.41
2022-12-25T20:04:33.580Z,100617.03
2022-12-25T20:07:06.266Z,100611.22
2022-12-25T20:09:38.955Z,100610.19
2022-12-25T20:12:14.603Z,100612.22
2022-12-25T20:14:47.455Z,100609.13
2022-12-25T20:17:20.036Z,100615.50
2022-12-25T20:19:54.216Z,100607.28
2022-12-25T20:22:26.767Z,100608.75
2022-12-25T20:24:59.629Z,100610.66
2022-12-25T20:27:32.245Z,100621.09
2022-12-25T20:30:05.629Z,100617.25
2022-12-25T20:32:38.643Z,100612.22
2022-12-25T20:35:15.567Z,100604.16
2022-12-25T20:37:48.173Z,100619.75
2022-12-25T20:40:20.767Z,100607.94
2022-12-25T20:42:53.458Z,100627.66
2022-12-25T20:45:26.000Z,100626.34
2022-12-25T20:48:00.291Z,100639.53
2022-12-25T20:50:32.959Z,100641.56
2022-12-25T20:53:05.488Z,100642.34
2022-12-25T20:55:38.082Z,100640.31
2022-12-25T20:58:10.758Z,100627.59
2022-12-25T21:00:45.415Z,100639.25
2022-12-25T21:03:18.182Z,100635.22
2022-12-25T21:05:53.674Z,100633.88
2022-12-25T21:08:28.214Z,100637.72
2022-12-25T21:11:01.589Z,100643.81
2022-12-25T21:13:40.270Z,100643.81
2022-12-25T21:16:18.444Z,100644.31
2022-12-25T21:18:54.014Z,100643.94
2022-12-25T21:21:27.235Z,100660.31
2022-12-25T21:23:59.879Z,100654.94
2022-12-25T21:26:32.568Z,100674.56
2022-12-25T21:29:05.330Z,100674.00
2022-12-25T21:32:13.341Z,100661.28
2022-12-25T21:34:45.867Z,100662.81
2022-12-25T21:37:27.583Z,100677.66
2022-12-25T21:40:00.250Z,100667.16
2022-12-25T21:42:52.104Z,100681.31
2022-12-25T21:45:35.427Z,100683.75
2022-12-25T21:48:09.191Z,100688.78
2022-12-25T21:51:00.598Z,100680.88
2022-12-25T21:53:33.139Z,100684.13
2022-12-25T21:56:06.057Z,100690.25
2022-12-25T21:58:44.209Z,100687.69
2022-12-25T22:01:17.128Z,100697.34
2022-12-25T22:03:49.917Z,100684.75
2022-12-25T22:06:41.893Z,100695.84
2022-12-25T22:09:14.734Z,100702.38
2022-12-25T22:12:06.780Z,100706.44
2022-12-25T22:14:56.684Z,100703.66
2022-12-25T22:17:58.653Z,100694.28
2022-12-25T22:20:37.938Z,100710.28
2022-12-25T22:23:10.735Z,100706.44
2022-12-25T22:25:43.546Z,100712.31
2022-12-25T22:28:16.041Z,100716.66
2022-12-25T22:30:48.704Z,100702.22
2022-12-25T22:33:22.523Z,100716.84
2022-12-25T22:36:07.622Z,100711.06
2022-12-25T22:38:42.426Z,100704.59
2022-12-25T22:41:14.993Z,100691.38
2022-12-25T22:44:16.397Z,100679.44
2022-12-25T22:46:45.396Z,100677.63
2022-12-25T22:49:19.082Z,100695.44
2022-12-25T22:51:52.783Z,100691.66
2022-12-25T22:54:28.486Z,100695.63
2022-12-25T22:57:01.606Z,100705.09
2022-12-25T22:59:34.386Z,100711.47
2022-12-25T23:02:07.634Z,100700.84
2022-12-25T23:04:44.522Z,100725.16
2022-12-25T23:07:17.474Z,100727.94
2022-12-25T23:09:50.099Z,100715.44
2022-12-25T23:12:41.335Z,100706.81
2022-12-25T23:15:13.923Z,100712.41
2022-12-25T23:18:05.179Z,100712.41
2022-12-25T23:20:56.602Z,100715.72
2022-12-25T23:23:49.537Z,100713.97
2022-12-25T23:26:22.351Z,100704.53
2022-12-25T23:29:13.704Z,100705.28
2022-12-25T23:31:53.644Z,100697.38
2022-12-25T23:34:26.566Z,100695.06
2022-12-25T23:36:59.676Z,100699.41
2022-12-25T23:39:32.839Z,100696.63
2022-12-25T23:42:05.652Z,100696.16
2022-12-25T23:44:38.199Z,100705.50
2022-12-25T23:47:11.346Z,100710.59
2022-12-25T23:49:44.243Z,100721.31
2022-12-25T23:52:16.862Z,100718.38
2022-12-25T23:54:49.518Z,100716.56
2022-12-25T23:57:22.301Z,100710.41
2022-12-25T23:59:54.891Z,100706.25
